aviador You're here:

CYQZ Decoded Metar

QUESNEL in BC, CANADA
Report Time2017-12-16 16:00:00
UTC Time2017-12-16 16:51:23
Flight Rules vfr VFR
WindVRB at 02 kt
Visibility9999 m
Phenomena:N/A
Clouds:Scattered 120 Hf
Overcast 150 Hf
Ceiling15,000 ft
Temp-5°C (ISA -16)
Dew Point-5°C (100% RH)
AAT-8.3°C
QNH1020 hPa
Density Alt-410 ft
Elevation1,788 ft
Report Wrong Elevation
Raw Report
CYQZ 161600Z AUTO VRB02KT 9SM SCT120 OVC150 M05/M05 A3013 RMK
SLP239=

Extra information for CYQZ:More info

Metar Taf Metar & Taf Last 4 Metars F.Rules Stats Wind Profile Meteogram Temp Stats Airport Information Weather charts Add Link Nearby VenuesMetar ALERT Operation Metar Decoded Social comments